| time (UTC) | temp F | wind direction | speed MPH | gust MPH | rain 1hr in | rain 24hr in | rain mn in | humidity % | barometer mb |
| 20260507172005 | 54 | 326 | 2.0 | 2.0 | 0.00 | 0.00 | 0.00 | 77 | 1022.8 |
| 20260507171501 | 55 | 312 | 2.0 | 2.0 | 0.00 | 0.00 | 0.00 | 76 | 1023.0 |
| 20260507170959 | 55 | 325 | 2.0 | 3.0 | 0.00 | 0.00 | 0.00 | 75 | 1023.1 |
| 20260507170455 | 55 | 312 | 2.0 | 2.0 | 0.00 | 0.00 | 0.00 | 77 | 1023.0 |
| 20260507165952 | 55 | 95 | 4.0 | 5.0 | 0.00 | 0.00 | 0.00 | 77 | 1022.8 |
| 20260507165447 | 55 | 326 | 3.0 | 5.0 | 0.00 | 0.00 | 0.00 | 76 | 1022.8 |
| 20260507164943 | 55 | 328 | 4.0 | 5.0 | 0.00 | 0.00 | 0.00 | 77 | 1022.8 |
| 20260507164441 | 54 | 326 | 2.0 | 2.0 | 0.00 | 0.00 | 0.00 | 77 | 1022.8 |
| 20260507163937 | 55 | 58 | 6.0 | 7.0 | 0.00 | 0.00 | 0.00 | 75 | 1023.0 |
| 20260507163435 | 56 | 292 | 2.0 | 2.0 | 0.00 | 0.00 | 0.00 | 75 | 1023.1 |
| 20260507162932 | 57 | 339 | 4.0 | 5.0 | 0.00 | 0.00 | 0.00 | 74 | 1022.8 |
| 20260507162427 | 56 | 315 | 1.0 | 2.0 | 0.00 | 0.00 | 0.00 | 76 | 1022.7 |
| 20260507161925 | 55 | 335 | 1.0 | 2.0 | 0.00 | 0.00 | 0.00 | 78 | 1022.6 |
| 20260507161420 | 53 | 4 | 5.0 | 7.0 | 0.00 | 0.00 | 0.00 | 79 | 1023.0 |
| 20260507160917 | 54 | 324 | 2.0 | 3.0 | 0.00 | 0.00 | 0.00 | 78 | 1022.5 |
| 20260507160413 | 54 | 298 | 2.0 | 3.0 | 0.00 | 0.00 | 0.00 | 77 | 1022.7 |
| 20260507155909 | 54 | 305 | 1.0 | 2.0 | 0.00 | 0.00 | 0.00 | 80 | 1022.8 |
| 20260507155405 | 53 | 316 | 1.0 | 2.0 | 0.00 | 0.00 | 0.00 | 81 | 1022.8 |
| 20260507154902 | 54 | 313 | 1.0 | 2.0 | 0.00 | 0.00 | 0.00 | 80 | 1022.8 |
| 20260507154359 | 53 | 309 | 1.0 | 2.0 | 0.00 | 0.00 | 0.00 | 80 | 1022.8 |
| 20260507153857 | 53 | 296 | 0.0 | 2.0 | 0.00 | 0.00 | 0.00 | 80 | 1023.0 |
| 20260507153353 | 53 | 306 | 0.0 | 0.0 | 0.00 | 0.00 | 0.00 | 80 | 1023.0 |
| 20260507152849 | 55 | 326 | 1.0 | 2.0 | 0.00 | 0.00 | 0.00 | 79 | 1023.0 |
| 20260507152346 | 52 | 315 | 2.0 | 3.0 | 0.00 | 0.00 | 0.00 | 84 | 1023.3 |
| 20260507151842 | 51 | 305 | 2.0 | 3.0 | 0.00 | 0.00 | 0.00 | 85 | 1023.0 |
| 20260507151338 | 50 | 319 | 0.0 | 2.0 | 0.00 | 0.00 | 0.00 | 86 | 1023.2 |
| 20260507150836 | 50 | 306 | 1.0 | 2.0 | 0.00 | 0.00 | 0.00 | 87 | 1023.0 |
| 20260507150332 | 50 | 306 | 2.0 | 3.0 | 0.00 | 0.00 | 0.00 | 86 | 1023.2 |
| 20260507145828 | 51 | 329 | 0.0 | 0.0 | 0.00 | 0.00 | 0.00 | 86 | 1023.2 |
| 20260507145325 | 50 | 319 | 0.0 | 0.0 | 0.00 | 0.00 | 0.00 | 86 | 1023.2 |
| 20260507144822 | 51 | 309 | 1.0 | 2.0 | 0.00 | 0.00 | 0.00 | 85 | 1023.2 |
| 20260507144319 | 51 | 301 | 1.0 | 2.0 | 0.00 | 0.00 | 0.00 | 86 | 1023.3 |
| 20260507143815 | 50 | 328 | 3.0 | 5.0 | 0.00 | 0.00 | 0.00 | 87 | 1023.3 |
| 20260507143313 | 50 | 311 | 0.0 | 0.0 | 0.00 | 0.00 | 0.00 | 89 | 1023.2 |
| 20260507142809 | 50 | 299 | 0.0 | 0.0 | 0.00 | 0.00 | 0.00 | 89 | 1023.4 |
| 20260507142307 | 50 | 308 | 2.0 | 2.0 | 0.00 | 0.00 | 0.00 | 89 | 1023.4 |
| 20260507141802 | 50 | 310 | 0.0 | 0.0 | 0.00 | 0.00 | 0.00 | 90 | 1023.2 |
| 20260507141259 | 49 | 309 | 0.0 | 2.0 | 0.00 | 0.00 | 0.00 | 91 | 1023.2 |
| 20260507140755 | 49 | 314 | 0.0 | 0.0 | 0.00 | 0.00 | 0.00 | 92 | 1023.1 |
| 20260507140253 | 49 | 294 | 0.0 | 0.0 | 0.00 | 0.00 | 0.00 | 91 | 1023.3 |
| 20260507135750 | 49 | 297 | 0.0 | 0.0 | 0.00 | 0.00 | 0.00 | 92 | 1023.1 |
| 20260507135247 | 49 | 296 | 0.0 | 0.0 | 0.00 | 0.00 | 0.00 | 92 | 1022.8 |
| 20260507134743 | 49 | 306 | 0.0 | 0.0 | 0.00 | 0.00 | 0.00 | 92 | 1023.1 |
| 20260507134240 | 49 | 309 | 0.0 | 0.0 | 0.00 | 0.00 | 0.00 | 93 | 1022.8 |
| 20260507133735 | 48 | 309 | 0.0 | 0.0 | 0.00 | 0.00 | 0.00 | 92 | 1023.0 |
| 20260507133232 | 48 | 305 | 0.0 | 0.0 | 0.00 | 0.00 | 0.00 | 93 | 1023.2 |
| 20260507132730 | 48 | 304 | 0.0 | 0.0 | 0.00 | 0.00 | 0.00 | 93 | 1023.0 |
| 20260507132227 | 48 | 299 | 0.0 | 0.0 | 0.00 | 0.00 | 0.00 | 93 | 1022.7 |
| 20260507131723 | 48 | 305 | 0.0 | 0.0 | 0.00 | 0.00 | 0.00 | 93 | 1022.8 |
| 20260507131221 | 48 | 292 | 0.0 | 0.0 | 0.00 | 0.00 | 0.00 | 93 | 1023.0 |
| 20260507130717 | 48 | 294 | 0.0 | 0.0 | 0.00 | 0.00 | 0.00 | 94 | 1022.6 |
| 20260507130215 | 48 | 305 | 0.0 | 0.0 | 0.00 | 0.00 | 0.00 | 94 | 1023.0 |
| 20260507125714 | 48 | 301 | 0.0 | 0.0 | 0.00 | 0.00 | 0.00 | 93 | 1023.0 |
| 20260507125211 | 48 | 289 | 0.0 | 0.0 | 0.00 | 0.00 | 0.00 | 93 | 1023.2 |
| 20260507124707 | 48 | 291 | 0.0 | 0.0 | 0.00 | 0.00 | 0.00 | 93 | 1023.0 |
| 20260507124204 | 48 | 286 | 0.0 | 0.0 | 0.00 | 0.00 | 0.00 | 93 | 1023.0 |
| 20260507123703 | 48 | 287 | 1.0 | 2.0 | 0.00 | 0.00 | 0.00 | 92 | 1022.8 |
| 20260507123200 | 48 | 305 | 0.0 | 0.0 | 0.00 | 0.00 | 0.00 | 91 | 1023.0 |
| 20260507122655 | 48 | 291 | 0.0 | 0.0 | 0.00 | 0.00 | 0.00 | 91 | 1023.1 |
| 20260507122151 | 48 | 299 | 0.0 | 0.0 | 0.00 | 0.00 | 0.00 | 91 | 1023.2 |
| 20260507121647 | 48 | 282 | 1.0 | 2.0 | 0.00 | 0.00 | 0.00 | 91 | 1023.2 |
| 20260507121143 | 48 | 291 | 0.0 | 0.0 | 0.00 | 0.00 | 0.00 | 91 | 1023.4 |
| 20260507120639 | 48 | 291 | 0.0 | 0.0 | 0.00 | 0.00 | 0.00 | 91 | 1023.5 |
| 20260507120136 | 48 | 299 | 0.0 | 0.0 | 0.00 | 0.00 | 0.00 | 91 | 1023.5 |
| 20260507115632 | 48 | 291 | 0.0 | 2.0 | 0.00 | 0.00 | 0.00 | 91 | 1023.3 |
| 20260507115128 | 48 | 291 | 0.0 | 2.0 | 0.00 | 0.00 | 0.00 | 91 | 1023.4 |
| 20260507114624 | 48 | 291 | 0.0 | 0.0 | 0.00 | 0.00 | 0.00 | 91 | 1023.5 |
| 20260507114121 | 48 | 293 | 0.0 | 0.0 | 0.00 | 0.00 | 0.00 | 91 | 1023.7 |
| 20260507113619 | 48 | 292 | 0.0 | 0.0 | 0.00 | 0.00 | 0.00 | 92 | 1023.6 |
| 20260507113116 | 48 | 272 | 0.0 | 2.0 | 0.00 | 0.00 | 0.00 | 92 | 1023.7 |
| 20260507112614 | 49 | 287 | 0.0 | 2.0 | 0.00 | 0.00 | 0.00 | 91 | 1023.5 |
| 20260507112110 | 49 | 287 | 0.0 | 2.0 | 0.00 | 0.00 | 0.00 | 90 | 1023.5 |
| 20260507111607 | 49 | 294 | 0.0 | 0.0 | 0.00 | 0.00 | 0.00 | 90 | 1023.6 |
| 20260507111104 | 49 | 290 | 0.0 | 0.0 | 0.00 | 0.00 | 0.00 | 89 | 1023.5 |
| 20260507110600 | 49 | 287 | 1.0 | 2.0 | 0.00 | 0.00 | 0.00 | 89 | 1023.7 |
| 20260507110057 | 49 | 299 | 0.0 | 2.0 | 0.00 | 0.00 | 0.00 | 89 | 1023.6 |
| 20260507105554 | 49 | 283 | 2.0 | 3.0 | 0.00 | 0.00 | 0.00 | 89 | 1023.6 |
| 20260507105049 | 49 | 296 | 0.0 | 2.0 | 0.00 | 0.00 | 0.00 | 89 | 1023.6 |
| 20260507104547 | 49 | 294 | 1.0 | 2.0 | 0.00 | 0.00 | 0.00 | 89 | 1023.7 |
| 20260507104043 | 49 | 281 | 0.0 | 0.0 | 0.00 | 0.00 | 0.00 | 88 | 1023.7 |
| 20260507103539 | 49 | 302 | 0.0 | 0.0 | 0.00 | 0.00 | 0.00 | 88 | 1023.6 |
| 20260507103037 | 49 | 256 | 0.0 | 0.0 | 0.00 | 0.00 | 0.00 | 88 | 1023.8 |
| 20260507102533 | 49 | 299 | 0.0 | 0.0 | 0.00 | 0.00 | 0.00 | 88 | 1023.7 |
| 20260507102030 | 50 | 319 | 0.0 | 0.0 | 0.00 | 0.00 | 0.00 | 88 | 1023.8 |
| 20260507101525 | 49 | 291 | 0.0 | 0.0 | 0.00 | 0.00 | 0.00 | 87 | 1023.8 |
| 20260507101021 | 50 | 302 | 2.0 | 3.0 | 0.00 | 0.00 | 0.00 | 87 | 1023.8 |
| 20260507100519 | 49 | 313 | 0.0 | 0.0 | 0.00 | 0.00 | 0.00 | 87 | 1023.8 |
| 20260507100017 | 50 | 297 | 0.0 | 0.0 | 0.00 | 0.00 | 0.00 | 88 | 1023.9 |
| 20260507095514 | 50 | 318 | 1.0 | 2.0 | 0.00 | 0.00 | 0.00 | 88 | 1023.7 |
| 20260507095011 | 50 | 307 | 0.0 | 0.0 | 0.00 | 0.00 | 0.00 | 88 | 1023.7 |
| 20260507094507 | 50 | 296 | 0.0 | 0.0 | 0.00 | 0.00 | 0.00 | 88 | 1023.6 |
| 20260507094004 | 50 | 315 | 0.0 | 0.0 | 0.00 | 0.00 | 0.00 | 89 | 1023.5 |
| 20260507093502 | 50 | 305 | 0.0 | 0.0 | 0.00 | 0.00 | 0.00 | 89 | 1023.7 |
| 20260507093000 | 50 | 312 | 0.0 | 2.0 | 0.00 | 0.00 | 0.00 | 89 | 1023.7 |
| 20260507092456 | 50 | 315 | 0.0 | 0.0 | 0.00 | 0.00 | 0.00 | 89 | 1023.7 |
| 20260507091953 | 50 | 312 | 2.0 | 2.0 | 0.00 | 0.00 | 0.00 | 89 | 1023.6 |
| 20260507091449 | 50 | 306 | 0.0 | 0.0 | 0.00 | 0.00 | 0.00 | 89 | 1023.7 |
| 20260507090945 | 50 | 317 | 0.0 | 0.0 | 0.00 | 0.00 | 0.00 | 90 | 1023.8 |
| 20260507090436 | 50 | 312 | 0.0 | 2.0 | 0.00 | 0.00 | 0.00 | 91 | 1023.8 |
| 20260507085933 | 50 | 305 | 0.0 | 0.0 | 0.00 | 0.00 | 0.00 | 91 | 1023.6 |
| 20260507085430 | 50 | 315 | 0.0 | 2.0 | 0.00 | 0.00 | 0.00 | 91 | 1023.6 |
| 20260507084927 | 50 | 316 | 0.0 | 0.0 | 0.00 | 0.00 | 0.00 | 92 | 1023.7 |
| 20260507084424 | 50 | 313 | 0.0 | 0.0 | 0.00 | 0.00 | 0.00 | 92 | 1023.8 |
| 20260507083921 | 50 | 304 | 0.0 | 2.0 | 0.00 | 0.00 | 0.00 | 92 | 1023.6 |
| 20260507083417 | 50 | 311 | 0.0 | 0.0 | 0.00 | 0.00 | 0.00 | 93 | 1023.7 |
| 20260507082913 | 50 | 316 | 0.0 | 0.0 | 0.00 | 0.00 | 0.00 | 93 | 1023.7 |
| 20260507082409 | 50 | 299 | 0.0 | 0.0 | 0.00 | 0.00 | 0.00 | 93 | 1023.6 |
| 20260507081906 | 50 | 300 | 0.0 | 0.0 | 0.00 | 0.00 | 0.00 | 93 | 1023.7 |
| 20260507081402 | 50 | 306 | 3.0 | 5.0 | 0.00 | 0.00 | 0.00 | 93 | 1023.5 |
| 20260507080859 | 50 | 301 | 4.0 | 5.0 | 0.00 | 0.00 | 0.00 | 93 | 1023.8 |
| 20260507080355 | 50 | 296 | 2.0 | 2.0 | 0.00 | 0.00 | 0.00 | 93 | 1023.7 |
| 20260507075851 | 50 | 272 | 1.0 | 2.0 | 0.00 | 0.00 | 0.00 | 94 | 1023.9 |
| 20260507075347 | 50 | 312 | 0.0 | 0.0 | 0.00 | 0.00 | 0.00 | 94 | 1023.6 |
| 20260507074843 | 50 | 305 | 0.0 | 0.0 | 0.00 | 0.00 | 0.00 | 94 | 1023.6 |
| 20260507074341 | 50 | 285 | 0.0 | 0.0 | 0.00 | 0.00 | 0.00 | 94 | 1023.8 |
| 20260507073838 | 51 | 308 | 2.0 | 2.0 | 0.00 | 0.00 | 0.00 | 94 | 1023.7 |
| 20260507073334 | 51 | 316 | 0.0 | 2.0 | 0.00 | 0.00 | 0.00 | 93 | 1023.6 |
| 20260507072832 | 51 | 292 | 2.0 | 3.0 | 0.00 | 0.00 | 0.00 | 93 | 1023.5 |
| 20260507072329 | 51 | 308 | 4.0 | 5.0 | 0.00 | 0.00 | 0.00 | 92 | 1023.8 |
| 20260507071826 | 51 | 311 | 0.0 | 0.0 | 0.00 | 0.00 | 0.00 | 92 | 1023.6 |
| 20260507071323 | 51 | 312 | 0.0 | 2.0 | 0.00 | 0.00 | 0.00 | 92 | 1023.6 |
| 20260507070819 | 51 | 329 | 1.0 | 2.0 | 0.00 | 0.00 | 0.00 | 91 | 1023.6 |
| 20260507070317 | 51 | 309 | 0.0 | 2.0 | 0.00 | 0.00 | 0.00 | 91 | 1023.6 |
| 20260507065814 | 51 | 316 | 1.0 | 2.0 | 0.00 | 0.00 | 0.00 | 91 | 1023.5 |
| 20260507065310 | 51 | 314 | 0.0 | 0.0 | 0.00 | 0.00 | 0.00 | 91 | 1023.6 |
| 20260507064808 | 51 | 317 | 2.0 | 2.0 | 0.00 | 0.00 | 0.00 | 91 | 1023.5 |
| 20260507064306 | 51 | 321 | 1.0 | 2.0 | 0.00 | 0.00 | 0.00 | 92 | 1023.5 |
| 20260507063804 | 51 | 299 | 0.0 | 0.0 | 0.00 | 0.00 | 0.00 | 92 | 1023.6 |
| 20260507063300 | 51 | 277 | 0.0 | 0.0 | 0.00 | 0.00 | 0.00 | 92 | 1023.6 |
| 20260507062757 | 51 | 267 | 1.0 | 2.0 | 0.00 | 0.00 | 0.00 | 92 | 1023.6 |
| 20260507062254 | 51 | 285 | 0.0 | 0.0 | 0.00 | 0.00 | 0.00 | 92 | 1023.6 |
| 20260507061752 | 51 | 297 | 0.0 | 2.0 | 0.00 | 0.00 | 0.00 | 93 | 1023.5 |
| 20260507061250 | 52 | 301 | 0.0 | 0.0 | 0.00 | 0.00 | 0.00 | 93 | 1023.6 |
| 20260507060748 | 52 | 307 | 0.0 | 2.0 | 0.00 | 0.00 | 0.00 | 93 | 1023.6 |
| 20260507060244 | 52 | 312 | 0.0 | 0.0 | 0.00 | 0.00 | 0.00 | 92 | 1023.5 |
| 20260507055741 | 52 | 309 | 0.0 | 2.0 | 0.00 | 0.00 | 0.00 | 92 | 1023.7 |
| 20260507055236 | 52 | 325 | 0.0 | 0.0 | 0.00 | 0.00 | 0.00 | 91 | 1023.6 |
| 20260507054732 | 53 | 315 | 1.0 | 2.0 | 0.00 | 0.00 | 0.00 | 90 | 1023.5 |
| 20260507054229 | 53 | 312 | 1.0 | 2.0 | 0.00 | 0.00 | 0.00 | 89 | 1023.6 |
| 20260507053727 | 53 | 332 | 2.0 | 3.0 | 0.00 | 0.00 | 0.00 | 88 | 1023.7 |
| 20260507053224 | 53 | 358 | 2.0 | 5.0 | 0.00 | 0.00 | 0.00 | 89 | 1023.6 |
| 20260507052723 | 53 | 340 | 4.0 | 5.0 | 0.00 | 0.00 | 0.00 | 89 | 1023.8 |
| 20260507052219 | 53 | 307 | 1.0 | 2.0 | 0.00 | 0.00 | 0.00 | 89 | 1023.5 |
| 20260507051717 | 53 | 345 | 3.0 | 3.0 | 0.00 | 0.00 | 0.00 | 89 | 1023.6 |
| 20260507051214 | 53 | 329 | 0.0 | 2.0 | 0.00 | 0.00 | 0.00 | 91 | 1023.6 |
| 20260507050710 | 53 | 319 | 1.0 | 2.0 | 0.00 | 0.00 | 0.00 | 91 | 1023.5 |
| 20260507050207 | 53 | 345 | 2.0 | 5.0 | 0.00 | 0.00 | 0.00 | 93 | 1023.3 |
| 20260507045704 | 53 | 296 | 0.0 | 0.0 | 0.00 | 0.00 | 0.00 | 95 | 1023.5 |
| 20260507045200 | 53 | 296 | 0.0 | 0.0 | 0.00 | 0.00 | 0.00 | 95 | 1023.6 |
| 20260507044658 | 53 | 295 | 0.0 | 0.0 | 0.00 | 0.00 | 0.00 | 94 | 1023.5 |
| 20260507044154 | 53 | 299 | 0.0 | 0.0 | 0.00 | 0.00 | 0.00 | 93 | 1023.6 |
| 20260507043650 | 53 | 315 | 0.0 | 0.0 | 0.00 | 0.00 | 0.00 | 93 | 1023.4 |
| 20260507043147 | 53 | 329 | 0.0 | 0.0 | 0.00 | 0.00 | 0.00 | 95 | 1023.5 |
| 20260507042644 | 53 | 329 | 0.0 | 0.0 | 0.00 | 0.00 | 0.00 | 94 | 1023.6 |
| 20260507042138 | 53 | 329 | 0.0 | 0.0 | 0.00 | 0.00 | 0.00 | 94 | 1023.5 |
| 20260507041636 | 53 | 329 | 0.0 | 0.0 | 0.00 | 0.00 | 0.00 | 94 | 1023.5 |
| 20260507041127 | 53 | 329 | 0.0 | 0.0 | 0.00 | 0.00 | 0.00 | 94 | 1023.5 |
| 20260507040625 | 53 | 329 | 0.0 | 0.0 | 0.00 | 0.00 | 0.00 | 94 | 1023.5 |
| 20260507040121 | 53 | 329 | 0.0 | 0.0 | 0.00 | 0.00 | 0.00 | 93 | 1023.2 |
| 20260507035617 | 53 | 329 | 0.0 | 0.0 | 0.00 | 0.00 | 0.00 | 93 | 1023.2 |
| 20260507035113 | 53 | 329 | 0.0 | 0.0 | 0.00 | 0.00 | 0.00 | 93 | 1023.3 |
| 20260507034610 | 54 | 329 | 0.0 | 0.0 | 0.00 | 0.00 | 0.00 | 93 | 1023.3 |
| 20260507034107 | 54 | 329 | 0.0 | 0.0 | 0.00 | 0.00 | 0.00 | 93 | 1023.3 |
| 20260507033605 | 54 | 329 | 0.0 | 0.0 | 0.00 | 0.00 | 0.00 | 93 | 1023.2 |
| 20260507033056 | 54 | 335 | 0.0 | 0.0 | 0.00 | 0.00 | 0.00 | 92 | 1023.3 |
| 20260507032554 | 54 | 335 | 0.0 | 0.0 | 0.00 | 0.00 | 0.00 | 92 | 1023.1 |
| 20260507032050 | 54 | 335 | 0.0 | 0.0 | 0.00 | 0.00 | 0.00 | 91 | 1023.2 |
| 20260507031547 | 54 | 335 | 0.0 | 0.0 | 0.00 | 0.00 | 0.00 | 90 | 1023.2 |
| 20260507031044 | 54 | 335 | 0.0 | 0.0 | 0.00 | 0.00 | 0.00 | 90 | 1022.8 |
| 20260507030540 | 54 | 335 | 0.0 | 0.0 | 0.00 | 0.00 | 0.00 | 91 | 1023.0 |
| 20260507030038 | 54 | 335 | 0.0 | 0.0 | 0.00 | 0.00 | 0.00 | 91 | 1023.1 |
| 20260507025535 | 54 | 335 | 0.0 | 0.0 | 0.00 | 0.00 | 0.00 | 91 | 1023.0 |
| 20260507025032 | 54 | 333 | 0.0 | 0.0 | 0.00 | 0.00 | 0.00 | 90 | 1023.0 |
| 20260507024530 | 54 | 331 | 1.0 | 2.0 | 0.00 | 0.00 | 0.00 | 90 | 1023.1 |
| 20260507024027 | 54 | 320 | 0.0 | 0.0 | 0.00 | 0.00 | 0.00 | 90 | 1023.0 |
| 20260507023522 | 54 | 321 | 0.0 | 0.0 | 0.00 | 0.00 | 0.00 | 91 | 1022.7 |
| 20260507023021 | 54 | 321 | 0.0 | 0.0 | 0.00 | 0.00 | 0.00 | 91 | 1022.8 |
| 20260507022517 | 54 | 337 | 3.0 | 3.0 | 0.00 | 0.00 | 0.00 | 91 | 1022.8 |
| 20260507022012 | 54 | 355 | 2.0 | 2.0 | 0.00 | 0.00 | 0.00 | 91 | 1022.7 |
| 20260507021508 | 54 | 333 | 1.0 | 2.0 | 0.00 | 0.00 | 0.00 | 90 | 1022.7 |
| 20260507020959 | 54 | 304 | 2.0 | 2.0 | 0.00 | 0.00 | 0.00 | 90 | 1023.0 |
| 20260507020456 | 55 | 335 | 1.0 | 2.0 | 0.00 | 0.00 | 0.00 | 90 | 1022.7 |
| 20260507015953 | 55 | 306 | 2.0 | 2.0 | 0.00 | 0.00 | 0.00 | 90 | 1022.8 |
| 20260507015452 | 55 | 326 | 2.0 | 2.0 | 0.00 | 0.00 | 0.00 | 90 | 1022.7 |
| 20260507014949 | 55 | 337 | 1.0 | 2.0 | 0.00 | 0.00 | 0.00 | 89 | 1022.6 |
| 20260507014445 | 55 | 330 | 2.0 | 3.0 | 0.00 | 0.00 | 0.00 | 89 | 1022.6 |
| 20260507013941 | 55 | 333 | 3.0 | 3.0 | 0.00 | 0.00 | 0.00 | 88 | 1022.7 |
| 20260507013438 | 55 | 339 | 3.0 | 3.0 | 0.00 | 0.00 | 0.00 | 88 | 1022.7 |
| 20260507012935 | 55 | 314 | 2.0 | 2.0 | 0.00 | 0.00 | 0.00 | 88 | 1022.7 |
| 20260507012432 | 55 | 335 | 2.0 | 3.0 | 0.00 | 0.00 | 0.00 | 88 | 1022.8 |
| 20260507011928 | 55 | 338 | 4.0 | 5.0 | 0.00 | 0.00 | 0.00 | 89 | 1022.7 |
| 20260507011426 | 55 | 307 | 0.0 | 0.0 | 0.00 | 0.00 | 0.00 | 89 | 1022.7 |
| 20260507010925 | 55 | 341 | 2.0 | 3.0 | 0.00 | 0.00 | 0.00 | 88 | 1022.7 |
| 20260507010421 | 55 | 6 | 2.0 | 3.0 | 0.00 | 0.00 | 0.00 | 88 | 1023.0 |
| 20260507005918 | 55 | 316 | 0.0 | 0.0 | 0.00 | 0.00 | 0.00 | 88 | 1022.8 |
| 20260507005415 | 55 | 332 | 2.0 | 3.0 | 0.00 | 0.00 | 0.00 | 88 | 1022.7 |
| 20260507004911 | 55 | 336 | 2.0 | 2.0 | 0.00 | 0.00 | 0.00 | 88 | 1022.8 |
| 20260507004408 | 55 | 304 | 2.0 | 3.0 | 0.00 | 0.00 | 0.00 | 88 | 1023.0 |
| 20260507003906 | 55 | 318 | 2.0 | 2.0 | 0.00 | 0.00 | 0.00 | 88 | 1023.0 |
| 20260507003401 | 55 | 321 | 2.0 | 3.0 | 0.00 | 0.00 | 0.00 | 88 | 1023.0 |
| 20260507002856 | 55 | 317 | 2.0 | 2.0 | 0.00 | 0.00 | 0.00 | 88 | 1023.1 |
| 20260507002352 | 56 | 314 | 1.0 | 2.0 | 0.00 | 0.00 | 0.00 | 88 | 1022.7 |
| 20260507001850 | 55 | 320 | 3.0 | 3.0 | 0.00 | 0.00 | 0.00 | 88 | 1023.1 |
| 20260507001347 | 55 | 93 | 2.0 | 3.0 | 0.00 | 0.00 | 0.00 | 87 | 1023.0 |
| 20260507000844 | 55 | 352 | 2.0 | 2.0 | 0.00 | 0.00 | 0.00 | 88 | 1023.0 |
| 20260507000339 | 55 | 341 | 2.0 | 3.0 | 0.00 | 0.00 | 0.00 | 88 | 1023.1 |
| 20260506235835 | 55 | 303 | 2.0 | 2.0 | 0.00 | 0.00 | 0.00 | 88 | 1023.1 |
| 20260506235332 | 55 | 326 | 3.0 | 3.0 | 0.00 | 0.00 | 0.00 | 88 | 1023.1 |
| 20260506234828 | 55 | 331 | 2.0 | 3.0 | 0.00 | 0.00 | 0.00 | 88 | 1023.0 |
| 20260506234326 | 55 | 26 | 4.0 | 5.0 | 0.00 | 0.00 | 0.00 | 88 | 1023.1 |
| 20260506233823 | 55 | 54 | 6.0 | 9.0 | 0.00 | 0.00 | 0.00 | 88 | 1022.8 |
| 20260506233319 | 56 | 88 | 4.0 | 7.0 | 0.00 | 0.00 | 0.00 | 87 | 1023.0 |
| 20260506232816 | 57 | 101 | 7.0 | 10.0 | 0.00 | 0.00 | 0.00 | 85 | 1023.0 |
| 20260506232311 | 57 | 309 | 0.0 | 0.0 | 0.00 | 0.00 | 0.00 | 88 | 1022.8 |
| 20260506231808 | 57 | 303 | 0.0 | 0.0 | 0.00 | 0.00 | 0.00 | 88 | 1023.0 |
| 20260506231307 | 56 | 295 | 0.0 | 0.0 | 0.00 | 0.00 | 0.00 | 88 | 1022.8 |
| 20260506230803 | 57 | 315 | 0.0 | 0.0 | 0.00 | 0.00 | 0.00 | 89 | 1023.1 |
| 20260506230300 | 57 | 317 | 1.0 | 2.0 | 0.00 | 0.00 | 0.00 | 87 | 1022.8 |
| 20260506225756 | 56 | 311 | 1.0 | 2.0 | 0.00 | 0.00 | 0.00 | 87 | 1023.0 |
| 20260506225254 | 56 | 315 | 0.0 | 0.0 | 0.00 | 0.00 | 0.00 | 88 | 1022.8 |
| 20260506224750 | 56 | 320 | 0.0 | 0.0 | 0.00 | 0.00 | 0.00 | 89 | 1023.0 |
| 20260506224248 | 56 | 327 | 0.0 | 2.0 | 0.00 | 0.00 | 0.00 | 88 | 1023.1 |
| 20260506223744 | 56 | 303 | 0.0 | 0.0 | 0.00 | 0.00 | 0.00 | 90 | 1023.2 |
| 20260506223239 | 55 | 325 | 2.0 | 2.0 | 0.00 | 0.00 | 0.00 | 89 | 1023.3 |
| 20260506222737 | 55 | 330 | 0.0 | 2.0 | 0.00 | 0.00 | 0.00 | 89 | 1023.4 |
| 20260506222232 | 55 | 334 | 2.0 | 3.0 | 0.00 | 0.00 | 0.00 | 90 | 1023.5 |
| 20260506221730 | 55 | 314 | 1.0 | 2.0 | 0.00 | 0.00 | 0.00 | 90 | 1023.4 |
| 20260506221228 | 55 | 314 | 0.0 | 0.0 | 0.00 | 0.00 | 0.00 | 91 | 1023.4 |
| 20260506220720 | 55 | 313 | 0.0 | 0.0 | 0.00 | 0.00 | 0.00 | 91 | 1023.5 |
| 20260506220219 | 55 | 311 | 1.0 | 2.0 | 0.00 | 0.00 | 0.00 | 92 | 1023.3 |
| 20260506215716 | 55 | 310 | 0.0 | 0.0 | 0.00 | 0.00 | 0.00 | 92 | 1023.3 |
| 20260506215212 | 55 | 313 | 1.0 | 2.0 | 0.00 | 0.00 | 0.00 | 92 | 1023.3 |
| 20260506214704 | 55 | 308 | 0.0 | 0.0 | 0.00 | 0.00 | 0.00 | 93 | 1023.3 |
| 20260506214201 | 55 | 315 | 0.0 | 0.0 | 0.00 | 0.00 | 0.00 | 93 | 1023.5 |
| 20260506213700 | 55 | 304 | 0.0 | 0.0 | 0.00 | 0.00 | 0.00 | 93 | 1023.4 |
| 20260506213156 | 54 | 328 | 0.0 | 0.0 | 0.00 | 0.00 | 0.00 | 93 | 1023.4 |
| 20260506212654 | 54 | 335 | 1.0 | 2.0 | 0.00 | 0.00 | 0.00 | 94 | 1023.3 |
| 20260506212154 | 54 | 324 | 0.0 | 0.0 | 0.00 | 0.00 | 0.00 | 94 | 1023.5 |
| 20260506211649 | 54 | 324 | 0.0 | 2.0 | 0.00 | 0.00 | 0.00 | 94 | 1023.6 |
| 20260506211146 | 54 | 335 | 0.0 | 0.0 | 0.00 | 0.00 | 0.00 | 94 | 1023.4 |
| 20260506210643 | 54 | 332 | 3.0 | 3.0 | 0.00 | 0.00 | 0.00 | 94 | 1023.6 |
| 20260506210140 | 54 | 6 | 3.0 | 3.0 | 0.00 | 0.00 | 0.00 | 94 | 1023.5 |
| 20260506205637 | 54 | 340 | 2.0 | 3.0 | 0.00 | 0.00 | 0.00 | 95 | 1023.5 |
| 20260506205132 | 54 | 329 | 0.0 | 2.0 | 0.00 | 0.00 | 0.00 | 95 | 1023.5 |
| 20260506204631 | 54 | 328 | 1.0 | 2.0 | 0.00 | 0.00 | 0.00 | 95 | 1023.5 |
| 20260506204127 | 54 | 310 | 0.0 | 0.0 | 0.00 | 0.00 | 0.00 | 95 | 1023.3 |
| 20260506203625 | 54 | 281 | 1.0 | 3.0 | 0.00 | 0.00 | 0.00 | 95 | 1023.2 |
| 20260506203121 | 54 | 318 | 1.0 | 2.0 | 0.00 | 0.00 | 0.00 | 95 | 1023.4 |
| 20260506202620 | 54 | 30 | 3.0 | 3.0 | 0.00 | 0.00 | 0.00 | 94 | 1023.3 |
| 20260506202116 | 54 | 327 | 1.0 | 2.0 | 0.00 | 0.00 | 0.00 | 94 | 1023.4 |
| 20260506201613 | 54 | 346 | 3.0 | 3.0 | 0.00 | 0.00 | 0.00 | 94 | 1023.4 |
| 20260506201109 | 54 | 314 | 1.0 | 2.0 | 0.00 | 0.00 | 0.00 | 94 | 1023.2 |
| 20260506200606 | 54 | 331 | 1.0 | 2.0 | 0.00 | 0.00 | 0.00 | 94 | 1023.1 |
| 20260506195559 | 54 | 314 | 0.0 | 0.0 | 0.00 | 0.00 | 0.00 | 95 | 1023.2 |
| 20260506195056 | 53 | 328 | 0.0 | 0.0 | 0.00 | 0.00 | 0.00 | 95 | 1023.1 |
| 20260506194554 | 54 | 324 | 1.0 | 2.0 | 0.00 | 0.00 | 0.00 | 95 | 1023.1 |
| 20260506194049 | 54 | 312 | 2.0 | 3.0 | 0.00 | 0.00 | 0.00 | 96 | 1023.2 |
| 20260506193548 | 53 | 340 | 4.0 | 5.0 | 0.00 | 0.00 | 0.00 | 95 | 1023.0 |
| 20260506193044 | 53 | 9 | 5.0 | 7.0 | 0.00 | 0.00 | 0.00 | 95 | 1023.2 |
| 20260506192541 | 53 | 313 | 1.0 | 2.0 | 0.00 | 0.00 | 0.00 | 96 | 1023.2 |
| 20260506192036 | 53 | 331 | 1.0 | 2.0 | 0.00 | 0.00 | 0.00 | 97 | 1023.2 |
| 20260506191534 | 53 | 321 | 2.0 | 3.0 | 0.00 | 0.00 | 0.00 | 96 | 1023.1 |
| 20260506191029 | 53 | 339 | 1.0 | 2.0 | 0.00 | 0.00 | 0.00 | 97 | 1023.0 |
| 20260506190527 | 53 | 329 | 1.0 | 2.0 | 0.00 | 0.00 | 0.00 | 96 | 1023.2 |
| 20260506190024 | 53 | 10 | 4.0 | 5.0 | 0.00 | 0.00 | 0.00 | 96 | 1022.8 |
| 20260506185521 | 53 | 351 | 2.0 | 3.0 | 0.00 | 0.00 | 0.00 | 96 | 1023.0 |
| 20260506185017 | 53 | 335 | 4.0 | 5.0 | 0.00 | 0.00 | 0.00 | 96 | 1022.8 |
| 20260506184515 | 53 | 327 | 2.0 | 2.0 | 0.00 | 0.00 | 0.00 | 95 | 1022.7 |
| 20260506184012 | 53 | 314 | 0.0 | 0.0 | 0.00 | 0.00 | 0.00 | 96 | 1022.5 |
| 20260506183508 | 53 | 332 | 2.0 | 3.0 | 0.00 | 0.00 | 0.00 | 96 | 1022.7 |
| 20260506183006 | 53 | 331 | 4.0 | 5.0 | 0.00 | 0.00 | 0.00 | 96 | 1022.7 |
| 20260506182502 | 53 | 320 | 2.0 | 3.0 | 0.00 | 0.00 | 0.00 | 96 | 1022.7 |
| 20260506181959 | 53 | 306 | 0.0 | 0.0 | 0.00 | 0.00 | 0.00 | 97 | 1022.8 |
| 20260506181457 | 52 | 322 | 0.0 | 0.0 | 0.00 | 0.00 | 0.00 | 96 | 1023.0 |
| 20260506180953 | 52 | 322 | 0.0 | 0.0 | 0.00 | 0.00 | 0.00 | 97 | 1022.8 |
| 20260506180449 | 52 | 353 | 2.0 | 2.0 | 0.00 | 0.00 | 0.00 | 97 | 1023.0 |
| 20260506175941 | 53 | 336 | 3.0 | 3.0 | 0.00 | 0.00 | 0.00 | 97 | 1022.8 |
| 20260506175438 | 53 | 338 | 2.0 | 2.0 | 0.00 | 0.00 | 0.00 | 97 | 1023.0 |
| 20260506174934 | 52 | 338 | 3.0 | 5.0 | 0.00 | 0.00 | 0.00 | 97 | 1023.0 |
| 20260506174432 | 53 | 338 | 5.0 | 9.0 | 0.00 | 0.00 | 0.00 | 98 | 1023.0 |
| 20260506173928 | 52 | 327 | 0.0 | 2.0 | 0.00 | 0.00 | 0.00 | 97 | 1022.7 |
| 20260506173425 | 53 | 319 | 2.0 | 2.0 | 0.00 | 0.00 | 0.00 | 97 | 1022.7 |
| 20260506172922 | 53 | 343 | 3.0 | 3.0 | 0.00 | 0.00 | 0.00 | 97 | 1022.7 |
| 20260506172419 | 53 | 330 | 1.0 | 2.0 | 0.00 | 0.00 | 0.00 | 97 | 1022.6 |